sensor_id;sensor_type;location;lat;lon;timestamp;P1;durP1;ratioP1;P2;durP2;ratioP2
12660;SDS011;39039;51.802;5.710;2022-12-16T00:01:05;45.33;;;22.57;;
12660;SDS011;39039;51.802;5.710;2022-12-16T00:03:32;53.63;;;22.07;;
12660;SDS011;39039;51.802;5.710;2022-12-16T00:05:59;44.67;;;22.80;;
12660;SDS011;39039;51.802;5.710;2022-12-16T00:08:27;48.53;;;23.63;;
12660;SDS011;39039;51.802;5.710;2022-12-16T00:10:57;45.77;;;21.80;;
12660;SDS011;39039;51.802;5.710;2022-12-16T00:13:24;43.90;;;21.93;;
12660;SDS011;39039;51.802;5.710;2022-12-16T00:15:51;44.50;;;21.70;;
12660;SDS011;39039;51.802;5.710;2022-12-16T00:18:18;47.70;;;21.57;;
12660;SDS011;39039;51.802;5.710;2022-12-16T00:20:49;44.20;;;21.77;;
12660;SDS011;39039;51.802;5.710;2022-12-16T00:23:17;42.87;;;21.20;;
12660;SDS011;39039;51.802;5.710;2022-12-16T00:25:44;44.27;;;22.40;;
12660;SDS011;39039;51.802;5.710;2022-12-16T00:28:14;42.17;;;21.07;;
12660;SDS011;39039;51.802;5.710;2022-12-16T00:30:41;43.53;;;22.17;;
12660;SDS011;39039;51.802;5.710;2022-12-16T00:33:08;45.03;;;21.10;;
12660;SDS011;39039;51.802;5.710;2022-12-16T00:35:40;48.53;;;21.77;;
12660;SDS011;39039;51.802;5.710;2022-12-16T00:38:09;44.03;;;21.03;;
12660;SDS011;39039;51.802;5.710;2022-12-16T00:40:36;40.33;;;20.67;;
12660;SDS011;39039;51.802;5.710;2022-12-16T00:43:04;39.87;;;19.57;;
12660;SDS011;39039;51.802;5.710;2022-12-16T00:45:32;39.80;;;19.33;;
12660;SDS011;39039;51.802;5.710;2022-12-16T00:47:59;38.37;;;19.27;;
12660;SDS011;39039;51.802;5.710;2022-12-16T00:50:26;36.20;;;20.87;;
12660;SDS011;39039;51.802;5.710;2022-12-16T00:52:53;37.50;;;18.93;;
12660;SDS011;39039;51.802;5.710;2022-12-16T00:55:21;42.10;;;19.80;;
12660;SDS011;39039;51.802;5.710;2022-12-16T00:57:50;43.40;;;19.07;;
12660;SDS011;39039;51.802;5.710;2022-12-16T01:00:21;41.93;;;19.13;;
12660;SDS011;39039;51.802;5.710;2022-12-16T01:02:50;37.63;;;18.77;;
12660;SDS011;39039;51.802;5.710;2022-12-16T01:05:19;38.17;;;18.63;;
12660;SDS011;39039;51.802;5.710;2022-12-16T01:07:50;33.00;;;17.00;;
12660;SDS011;39039;51.802;5.710;2022-12-16T01:10:18;39.73;;;18.57;;
12660;SDS011;39039;51.802;5.710;2022-12-16T01:12:45;41.83;;;19.07;;
12660;SDS011;39039;51.802;5.710;2022-12-16T01:15:15;42.97;;;19.10;;
12660;SDS011;39039;51.802;5.710;2022-12-16T01:17:44;39.83;;;19.63;;
12660;SDS011;39039;51.802;5.710;2022-12-16T01:20:13;39.10;;;19.40;;
12660;SDS011;39039;51.802;5.710;2022-12-16T01:22:40;42.07;;;20.17;;
12660;SDS011;39039;51.802;5.710;2022-12-16T01:25:08;42.83;;;19.37;;
12660;SDS011;39039;51.802;5.710;2022-12-16T01:27:36;34.47;;;17.83;;
12660;SDS011;39039;51.802;5.710;2022-12-16T01:30:04;35.47;;;17.87;;
12660;SDS011;39039;51.802;5.710;2022-12-16T01:32:31;38.27;;;19.20;;
12660;SDS011;39039;51.802;5.710;2022-12-16T01:34:58;38.63;;;17.67;;
12660;SDS011;39039;51.802;5.710;2022-12-16T01:37:27;39.80;;;18.50;;
12660;SDS011;39039;51.802;5.710;2022-12-16T01:39:54;36.43;;;17.77;;
12660;SDS011;39039;51.802;5.710;2022-12-16T01:42:21;34.47;;;17.93;;
12660;SDS011;39039;51.802;5.710;2022-12-16T01:44:51;37.03;;;17.10;;
12660;SDS011;39039;51.802;5.710;2022-12-16T01:47:20;38.23;;;17.80;;
12660;SDS011;39039;51.802;5.710;2022-12-16T01:49:54;34.73;;;18.63;;
12660;SDS011;39039;51.802;5.710;2022-12-16T01:52:30;37.53;;;18.23;;
12660;SDS011;39039;51.802;5.710;2022-12-16T01:54:59;35.10;;;17.47;;
12660;SDS011;39039;51.802;5.710;2022-12-16T01:57:29;39.50;;;19.37;;
12660;SDS011;39039;51.802;5.710;2022-12-16T01:59:56;39.10;;;18.70;;
12660;SDS011;39039;51.802;5.710;2022-12-16T02:02:24;31.03;;;16.77;;
12660;SDS011;39039;51.802;5.710;2022-12-16T02:04:51;36.97;;;18.17;;
12660;SDS011;39039;51.802;5.710;2022-12-16T02:07:37;39.23;;;18.70;;
12660;SDS011;39039;51.802;5.710;2022-12-16T02:10:05;33.57;;;17.40;;
12660;SDS011;39039;51.802;5.710;2022-12-16T02:12:33;41.47;;;19.27;;
12660;SDS011;39039;51.802;5.710;2022-12-16T02:15:13;31.97;;;18.23;;
12660;SDS011;39039;51.802;5.710;2022-12-16T02:17:51;36.23;;;17.77;;
12660;SDS011;39039;51.802;5.710;2022-12-16T02:20:32;35.30;;;17.67;;
12660;SDS011;39039;51.802;5.710;2022-12-16T02:23:16;37.37;;;17.17;;
12660;SDS011;39039;51.802;5.710;2022-12-16T02:25:52;39.60;;;17.87;;
12660;SDS011;39039;51.802;5.710;2022-12-16T02:28:28;37.60;;;16.53;;
12660;SDS011;39039;51.802;5.710;2022-12-16T02:31:04;33.47;;;17.47;;
12660;SDS011;39039;51.802;5.710;2022-12-16T02:33:41;34.10;;;17.00;;
12660;SDS011;39039;51.802;5.710;2022-12-16T02:36:11;36.10;;;17.90;;
12660;SDS011;39039;51.802;5.710;2022-12-16T02:38:47;34.70;;;18.50;;
12660;SDS011;39039;51.802;5.710;2022-12-16T02:41:16;37.20;;;17.40;;
12660;SDS011;39039;51.802;5.710;2022-12-16T02:43:50;38.03;;;17.97;;
12660;SDS011;39039;51.802;5.710;2022-12-16T02:46:21;29.50;;;16.33;;
12660;SDS011;39039;51.802;5.710;2022-12-16T02:48:49;42.83;;;17.73;;
12660;SDS011;39039;51.802;5.710;2022-12-16T02:51:17;37.63;;;17.23;;
12660;SDS011;39039;51.802;5.710;2022-12-16T02:53:45;36.50;;;18.17;;
12660;SDS011;39039;51.802;5.710;2022-12-16T02:56:16;33.73;;;18.17;;
12660;SDS011;39039;51.802;5.710;2022-12-16T02:58:49;34.03;;;17.00;;
12660;SDS011;39039;51.802;5.710;2022-12-16T03:01:18;33.47;;;17.03;;
12660;SDS011;39039;51.802;5.710;2022-12-16T03:03:51;32.67;;;17.07;;
12660;SDS011;39039;51.802;5.710;2022-12-16T03:06:23;30.87;;;16.87;;
12660;SDS011;39039;51.802;5.710;2022-12-16T03:08:51;31.33;;;16.83;;
12660;SDS011;39039;51.802;5.710;2022-12-16T03:11:20;36.67;;;18.83;;
12660;SDS011;39039;51.802;5.710;2022-12-16T03:13:49;40.87;;;17.97;;
12660;SDS011;39039;51.802;5.710;2022-12-16T03:16:17;35.57;;;19.07;;
12660;SDS011;39039;51.802;5.710;2022-12-16T03:18:46;32.47;;;18.93;;
12660;SDS011;39039;51.802;5.710;2022-12-16T03:21:16;38.20;;;17.73;;
12660;SDS011;39039;51.802;5.710;2022-12-16T03:23:45;38.53;;;17.53;;
12660;SDS011;39039;51.802;5.710;2022-12-16T03:26:14;44.00;;;19.13;;
12660;SDS011;39039;51.802;5.710;2022-12-16T03:28:44;39.50;;;18.43;;
12660;SDS011;39039;51.802;5.710;2022-12-16T03:31:18;38.77;;;17.20;;
12660;SDS011;39039;51.802;5.710;2022-12-16T03:33:47;37.83;;;17.20;;
12660;SDS011;39039;51.802;5.710;2022-12-16T03:36:19;43.43;;;19.30;;
12660;SDS011;39039;51.802;5.710;2022-12-16T03:38:46;35.13;;;18.17;;
12660;SDS011;39039;51.802;5.710;2022-12-16T03:41:15;35.67;;;18.30;;
12660;SDS011;39039;51.802;5.710;2022-12-16T03:43:42;34.83;;;18.13;;
12660;SDS011;39039;51.802;5.710;2022-12-16T03:46:10;38.77;;;18.90;;
12660;SDS011;39039;51.802;5.710;2022-12-16T03:48:43;36.47;;;20.00;;
12660;SDS011;39039;51.802;5.710;2022-12-16T03:51:11;35.43;;;18.50;;
12660;SDS011;39039;51.802;5.710;2022-12-16T03:53:40;40.83;;;19.83;;
12660;SDS011;39039;51.802;5.710;2022-12-16T03:56:07;39.07;;;20.00;;
12660;SDS011;39039;51.802;5.710;2022-12-16T03:58:34;41.80;;;20.93;;
12660;SDS011;39039;51.802;5.710;2022-12-16T04:01:03;38.33;;;19.00;;
12660;SDS011;39039;51.802;5.710;2022-12-16T04:03:31;41.53;;;20.87;;
12660;SDS011;39039;51.802;5.710;2022-12-16T04:05:58;47.03;;;20.80;;
12660;SDS011;39039;51.802;5.710;2022-12-16T04:08:25;38.80;;;20.23;;
12660;SDS011;39039;51.802;5.710;2022-12-16T04:10:53;41.80;;;21.13;;
12660;SDS011;39039;51.802;5.710;2022-12-16T04:13:38;37.67;;;20.83;;
12660;SDS011;39039;51.802;5.710;2022-12-16T04:16:22;39.80;;;20.30;;
12660;SDS011;39039;51.802;5.710;2022-12-16T04:19:10;49.43;;;21.77;;
12660;SDS011;39039;51.802;5.710;2022-12-16T04:21:58;37.43;;;20.83;;
12660;SDS011;39039;51.802;5.710;2022-12-16T04:24:42;43.30;;;20.40;;
12660;SDS011;39039;51.802;5.710;2022-12-16T04:27:11;40.70;;;21.73;;
12660;SDS011;39039;51.802;5.710;2022-12-16T04:29:51;44.07;;;22.23;;
12660;SDS011;39039;51.802;5.710;2022-12-16T04:32:36;43.20;;;21.07;;
12660;SDS011;39039;51.802;5.710;2022-12-16T04:35:21;43.53;;;20.40;;
12660;SDS011;39039;51.802;5.710;2022-12-16T04:38:05;45.50;;;22.03;;
12660;SDS011;39039;51.802;5.710;2022-12-16T04:40:50;43.83;;;21.70;;
12660;SDS011;39039;51.802;5.710;2022-12-16T04:43:36;39.97;;;21.00;;
12660;SDS011;39039;51.802;5.710;2022-12-16T04:46:21;42.13;;;22.47;;
12660;SDS011;39039;51.802;5.710;2022-12-16T04:49:05;48.83;;;22.90;;
12660;SDS011;39039;51.802;5.710;2022-12-16T04:51:49;46.03;;;21.13;;
12660;SDS011;39039;51.802;5.710;2022-12-16T04:54:34;50.87;;;22.97;;
12660;SDS011;39039;51.802;5.710;2022-12-16T04:57:19;48.23;;;22.80;;
12660;SDS011;39039;51.802;5.710;2022-12-16T05:00:06;47.33;;;22.47;;
12660;SDS011;39039;51.802;5.710;2022-12-16T05:02:53;56.23;;;24.43;;
12660;SDS011;39039;51.802;5.710;2022-12-16T05:05:38;46.20;;;23.20;;
12660;SDS011;39039;51.802;5.710;2022-12-16T05:08:22;53.50;;;23.50;;
12660;SDS011;39039;51.802;5.710;2022-12-16T05:11:07;46.43;;;24.37;;
12660;SDS011;39039;51.802;5.710;2022-12-16T05:13:52;57.27;;;24.87;;
12660;SDS011;39039;51.802;5.710;2022-12-16T05:16:37;49.57;;;23.93;;
12660;SDS011;39039;51.802;5.710;2022-12-16T05:19:22;44.20;;;23.07;;
12660;SDS011;39039;51.802;5.710;2022-12-16T05:22:07;46.00;;;23.90;;
12660;SDS011;39039;51.802;5.710;2022-12-16T05:24:51;48.10;;;23.13;;
12660;SDS011;39039;51.802;5.710;2022-12-16T05:27:36;49.93;;;24.27;;
12660;SDS011;39039;51.802;5.710;2022-12-16T05:30:21;50.90;;;23.93;;
12660;SDS011;39039;51.802;5.710;2022-12-16T05:33:12;49.27;;;24.93;;
12660;SDS011;39039;51.802;5.710;2022-12-16T05:35:56;50.70;;;23.30;;
12660;SDS011;39039;51.802;5.710;2022-12-16T05:38:41;57.50;;;24.50;;
12660;SDS011;39039;51.802;5.710;2022-12-16T05:41:26;53.00;;;24.63;;
12660;SDS011;39039;51.802;5.710;2022-12-16T05:44:10;57.33;;;24.80;;
12660;SDS011;39039;51.802;5.710;2022-12-16T05:46:55;60.97;;;26.00;;
12660;SDS011;39039;51.802;5.710;2022-12-16T05:49:55;51.90;;;23.27;;
12660;SDS011;39039;51.802;5.710;2022-12-16T05:52:40;53.40;;;24.90;;
12660;SDS011;39039;51.802;5.710;2022-12-16T05:55:25;60.17;;;25.77;;
12660;SDS011;39039;51.802;5.710;2022-12-16T05:58:09;54.70;;;25.40;;
12660;SDS011;39039;51.802;5.710;2022-12-16T06:00:54;58.67;;;25.33;;
12660;SDS011;39039;51.802;5.710;2022-12-16T06:03:39;57.33;;;27.10;;
12660;SDS011;39039;51.802;5.710;2022-12-16T06:06:25;57.30;;;25.23;;
12660;SDS011;39039;51.802;5.710;2022-12-16T06:09:09;54.77;;;24.43;;
12660;SDS011;39039;51.802;5.710;2022-12-16T06:11:54;61.93;;;24.27;;
12660;SDS011;39039;51.802;5.710;2022-12-16T06:14:44;48.47;;;24.60;;
12660;SDS011;39039;51.802;5.710;2022-12-16T06:17:40;52.53;;;23.90;;
12660;SDS011;39039;51.802;5.710;2022-12-16T06:20:25;50.73;;;23.47;;
12660;SDS011;39039;51.802;5.710;2022-12-16T06:23:10;56.73;;;26.17;;
12660;SDS011;39039;51.802;5.710;2022-12-16T06:25:55;59.40;;;26.53;;
12660;SDS011;39039;51.802;5.710;2022-12-16T06:28:40;63.27;;;25.53;;
12660;SDS011;39039;51.802;5.710;2022-12-16T06:31:24;48.90;;;24.83;;
12660;SDS011;39039;51.802;5.710;2022-12-16T06:34:09;51.57;;;23.80;;
12660;SDS011;39039;51.802;5.710;2022-12-16T06:36:53;47.90;;;23.50;;
12660;SDS011;39039;51.802;5.710;2022-12-16T06:39:39;51.30;;;24.33;;
12660;SDS011;39039;51.802;5.710;2022-12-16T06:42:23;48.43;;;22.83;;
12660;SDS011;39039;51.802;5.710;2022-12-16T06:45:16;49.47;;;22.87;;
12660;SDS011;39039;51.802;5.710;2022-12-16T06:48:04;46.60;;;22.63;;
12660;SDS011;39039;51.802;5.710;2022-12-16T06:50:49;49.33;;;22.63;;
12660;SDS011;39039;51.802;5.710;2022-12-16T06:53:34;45.67;;;21.13;;
12660;SDS011;39039;51.802;5.710;2022-12-16T06:56:20;53.53;;;22.23;;
12660;SDS011;39039;51.802;5.710;2022-12-16T06:59:04;50.47;;;22.90;;
12660;SDS011;39039;51.802;5.710;2022-12-16T07:01:49;52.50;;;23.83;;
12660;SDS011;39039;51.802;5.710;2022-12-16T07:04:34;44.17;;;19.50;;
12660;SDS011;39039;51.802;5.710;2022-12-16T07:07:18;43.67;;;21.63;;
12660;SDS011;39039;51.802;5.710;2022-12-16T07:10:08;48.37;;;23.50;;
12660;SDS011;39039;51.802;5.710;2022-12-16T07:12:57;51.10;;;22.97;;
12660;SDS011;39039;51.802;5.710;2022-12-16T07:15:42;48.77;;;23.73;;
12660;SDS011;39039;51.802;5.710;2022-12-16T07:18:26;47.10;;;22.17;;
12660;SDS011;39039;51.802;5.710;2022-12-16T07:21:11;53.27;;;23.70;;
12660;SDS011;39039;51.802;5.710;2022-12-16T07:23:55;45.30;;;21.70;;
12660;SDS011;39039;51.802;5.710;2022-12-16T07:26:40;46.60;;;23.20;;
12660;SDS011;39039;51.802;5.710;2022-12-16T07:29:26;49.50;;;22.60;;
12660;SDS011;39039;51.802;5.710;2022-12-16T07:32:10;51.20;;;24.23;;
12660;SDS011;39039;51.802;5.710;2022-12-16T07:34:55;50.80;;;25.13;;
12660;SDS011;39039;51.802;5.710;2022-12-16T07:37:40;58.70;;;24.17;;
12660;SDS011;39039;51.802;5.710;2022-12-16T07:40:24;47.67;;;24.73;;
12660;SDS011;39039;51.802;5.710;2022-12-16T07:43:09;54.60;;;24.53;;
12660;SDS011;39039;51.802;5.710;2022-12-16T07:45:55;53.50;;;25.57;;
12660;SDS011;39039;51.802;5.710;2022-12-16T07:48:40;52.03;;;24.40;;
12660;SDS011;39039;51.802;5.710;2022-12-16T07:51:24;52.20;;;23.37;;
12660;SDS011;39039;51.802;5.710;2022-12-16T07:54:09;56.63;;;25.13;;
12660;SDS011;39039;51.802;5.710;2022-12-16T07:57:05;51.70;;;24.50;;
12660;SDS011;39039;51.802;5.710;2022-12-16T07:59:50;45.23;;;24.27;;
12660;SDS011;39039;51.802;5.710;2022-12-16T08:05:35;56.33;;;25.77;;
12660;SDS011;39039;51.802;5.710;2022-12-16T08:08:20;48.57;;;23.23;;
12660;SDS011;39039;51.802;5.710;2022-12-16T08:11:05;55.87;;;24.73;;
12660;SDS011;39039;51.802;5.710;2022-12-16T08:13:49;55.80;;;25.33;;
12660;SDS011;39039;51.802;5.710;2022-12-16T08:16:34;50.83;;;23.17;;
12660;SDS011;39039;51.802;5.710;2022-12-16T08:19:18;49.17;;;23.43;;
12660;SDS011;39039;51.802;5.710;2022-12-16T08:22:04;47.93;;;23.00;;
12660;SDS011;39039;51.802;5.710;2022-12-16T08:24:48;52.60;;;22.90;;
12660;SDS011;39039;51.802;5.710;2022-12-16T08:27:33;46.33;;;22.53;;
12660;SDS011;39039;51.802;5.710;2022-12-16T08:30:30;46.93;;;23.93;;
12660;SDS011;39039;51.802;5.710;2022-12-16T08:33:14;58.20;;;25.80;;
12660;SDS011;39039;51.802;5.710;2022-12-16T08:35:59;52.20;;;23.40;;
12660;SDS011;39039;51.802;5.710;2022-12-16T08:38:45;58.13;;;25.00;;
12660;SDS011;39039;51.802;5.710;2022-12-16T08:41:30;55.67;;;24.90;;
12660;SDS011;39039;51.802;5.710;2022-12-16T08:44:15;49.23;;;24.50;;
12660;SDS011;39039;51.802;5.710;2022-12-16T08:46:59;46.37;;;25.30;;
12660;SDS011;39039;51.802;5.710;2022-12-16T08:49:44;48.93;;;22.97;;
12660;SDS011;39039;51.802;5.710;2022-12-16T08:52:29;43.67;;;22.00;;
12660;SDS011;39039;51.802;5.710;2022-12-16T08:55:15;43.03;;;21.23;;
12660;SDS011;39039;51.802;5.710;2022-12-16T08:58:00;61.57;;;24.30;;
12660;SDS011;39039;51.802;5.710;2022-12-16T09:00:47;47.37;;;21.53;;
12660;SDS011;39039;51.802;5.710;2022-12-16T09:03:31;36.70;;;18.43;;
12660;SDS011;39039;51.802;5.710;2022-12-16T09:06:16;39.33;;;18.97;;
12660;SDS011;39039;51.802;5.710;2022-12-16T09:09:01;48.83;;;22.63;;
12660;SDS011;39039;51.802;5.710;2022-12-16T09:11:47;40.27;;;21.83;;
12660;SDS011;39039;51.802;5.710;2022-12-16T09:14:32;42.23;;;21.57;;
12660;SDS011;39039;51.802;5.710;2022-12-16T09:17:16;39.50;;;19.43;;
12660;SDS011;39039;51.802;5.710;2022-12-16T09:20:01;37.33;;;19.03;;
12660;SDS011;39039;51.802;5.710;2022-12-16T09:22:45;37.27;;;19.97;;
12660;SDS011;39039;51.802;5.710;2022-12-16T09:25:30;35.07;;;19.13;;
12660;SDS011;39039;51.802;5.710;2022-12-16T09:28:24;35.20;;;19.20;;
12660;SDS011;39039;51.802;5.710;2022-12-16T09:31:09;37.20;;;21.67;;
12660;SDS011;39039;51.802;5.710;2022-12-16T09:33:53;35.70;;;19.80;;
12660;SDS011;39039;51.802;5.710;2022-12-16T09:36:38;36.17;;;19.83;;
12660;SDS011;39039;51.802;5.710;2022-12-16T09:39:28;39.90;;;20.93;;
12660;SDS011;39039;51.802;5.710;2022-12-16T09:42:15;39.90;;;21.27;;
12660;SDS011;39039;51.802;5.710;2022-12-16T09:45:07;41.63;;;20.97;;
12660;SDS011;39039;51.802;5.710;2022-12-16T09:48:00;36.27;;;20.27;;
12660;SDS011;39039;51.802;5.710;2022-12-16T09:50:47;39.43;;;21.03;;
12660;SDS011;39039;51.802;5.710;2022-12-16T09:53:33;37.00;;;20.60;;
12660;SDS011;39039;51.802;5.710;2022-12-16T09:56:21;41.67;;;22.77;;
12660;SDS011;39039;51.802;5.710;2022-12-16T09:59:09;38.97;;;21.10;;
12660;SDS011;39039;51.802;5.710;2022-12-16T10:02:08;37.27;;;20.10;;
12660;SDS011;39039;51.802;5.710;2022-12-16T10:04:53;33.57;;;19.07;;
12660;SDS011;39039;51.802;5.710;2022-12-16T10:07:39;33.83;;;19.17;;
12660;SDS011;39039;51.802;5.710;2022-12-16T10:10:27;33.17;;;19.57;;
12660;SDS011;39039;51.802;5.710;2022-12-16T10:13:18;34.10;;;18.27;;
12660;SDS011;39039;51.802;5.710;2022-12-16T10:16:07;41.90;;;21.90;;
12660;SDS011;39039;51.802;5.710;2022-12-16T10:18:59;41.87;;;22.53;;
12660;SDS011;39039;51.802;5.710;2022-12-16T10:21:49;37.30;;;21.33;;
12660;SDS011;39039;51.802;5.710;2022-12-16T10:24:39;38.63;;;21.37;;
12660;SDS011;39039;51.802;5.710;2022-12-16T10:27:27;38.10;;;21.53;;
12660;SDS011;39039;51.802;5.710;2022-12-16T10:30:17;36.80;;;21.60;;
12660;SDS011;39039;51.802;5.710;2022-12-16T10:33:06;34.70;;;19.57;;
12660;SDS011;39039;51.802;5.710;2022-12-16T10:35:53;33.93;;;18.93;;
12660;SDS011;39039;51.802;5.710;2022-12-16T10:38:40;32.23;;;18.63;;
12660;SDS011;39039;51.802;5.710;2022-12-16T10:41:28;36.80;;;20.70;;
12660;SDS011;39039;51.802;5.710;2022-12-16T10:44:18;42.97;;;20.43;;
12660;SDS011;39039;51.802;5.710;2022-12-16T10:47:04;38.60;;;20.23;;
12660;SDS011;39039;51.802;5.710;2022-12-16T10:49:48;43.17;;;22.17;;
12660;SDS011;39039;51.802;5.710;2022-12-16T10:52:42;44.67;;;22.63;;
12660;SDS011;39039;51.802;5.710;2022-12-16T10:55:33;43.40;;;22.10;;
12660;SDS011;39039;51.802;5.710;2022-12-16T10:58:22;37.73;;;20.80;;
12660;SDS011;39039;51.802;5.710;2022-12-16T11:01:19;45.07;;;21.93;;
12660;SDS011;39039;51.802;5.710;2022-12-16T11:07:04;39.07;;;21.37;;
12660;SDS011;39039;51.802;5.710;2022-12-16T11:09:52;37.63;;;21.53;;
12660;SDS011;39039;51.802;5.710;2022-12-16T11:12:36;45.33;;;20.93;;
12660;SDS011;39039;51.802;5.710;2022-12-16T11:15:23;37.20;;;20.70;;
12660;SDS011;39039;51.802;5.710;2022-12-16T11:18:08;39.13;;;21.93;;
12660;SDS011;39039;51.802;5.710;2022-12-16T11:21:10;38.37;;;20.20;;
12660;SDS011;39039;51.802;5.710;2022-12-16T11:24:03;36.93;;;19.27;;
12660;SDS011;39039;51.802;5.710;2022-12-16T11:26:53;35.33;;;18.30;;
12660;SDS011;39039;51.802;5.710;2022-12-16T11:29:48;37.00;;;18.53;;
12660;SDS011;39039;51.802;5.710;2022-12-16T11:32:34;34.80;;;17.30;;
12660;SDS011;39039;51.802;5.710;2022-12-16T11:35:20;33.70;;;19.07;;
12660;SDS011;39039;51.802;5.710;2022-12-16T11:38:08;33.67;;;18.43;;
12660;SDS011;39039;51.802;5.710;2022-12-16T11:40:55;36.73;;;18.77;;
12660;SDS011;39039;51.802;5.710;2022-12-16T11:43:41;37.83;;;19.27;;
12660;SDS011;39039;51.802;5.710;2022-12-16T11:46:29;37.03;;;18.67;;
12660;SDS011;39039;51.802;5.710;2022-12-16T11:49:16;34.80;;;17.97;;
12660;SDS011;39039;51.802;5.710;2022-12-16T11:52:01;31.70;;;17.33;;
12660;SDS011;39039;51.802;5.710;2022-12-16T11:54:49;39.30;;;20.13;;
12660;SDS011;39039;51.802;5.710;2022-12-16T11:57:38;35.37;;;18.97;;
12660;SDS011;39039;51.802;5.710;2022-12-16T12:00:26;40.73;;;19.23;;
12660;SDS011;39039;51.802;5.710;2022-12-16T12:03:11;36.70;;;20.03;;
12660;SDS011;39039;51.802;5.710;2022-12-16T12:06:10;43.00;;;21.70;;
12660;SDS011;39039;51.802;5.710;2022-12-16T12:08:58;37.57;;;20.53;;
12660;SDS011;39039;51.802;5.710;2022-12-16T12:11:44;36.77;;;20.10;;
12660;SDS011;39039;51.802;5.710;2022-12-16T12:14:34;40.73;;;19.67;;
12660;SDS011;39039;51.802;5.710;2022-12-16T12:17:27;35.47;;;18.53;;
12660;SDS011;39039;51.802;5.710;2022-12-16T12:20:23;34.07;;;18.43;;
12660;SDS011;39039;51.802;5.710;2022-12-16T12:23:13;31.87;;;18.63;;
12660;SDS011;39039;51.802;5.710;2022-12-16T12:26:05;34.63;;;19.03;;
12660;SDS011;39039;51.802;5.710;2022-12-16T12:28:55;30.73;;;16.73;;
12660;SDS011;39039;51.802;5.710;2022-12-16T12:31:43;26.60;;;14.87;;
12660;SDS011;39039;51.802;5.710;2022-12-16T12:34:34;30.97;;;17.27;;
12660;SDS011;39039;51.802;5.710;2022-12-16T12:37:23;32.30;;;16.83;;
12660;SDS011;39039;51.802;5.710;2022-12-16T12:40:15;30.43;;;16.60;;
12660;SDS011;39039;51.802;5.710;2022-12-16T12:43:03;30.63;;;17.10;;
12660;SDS011;39039;51.802;5.710;2022-12-16T12:46:05;32.57;;;16.83;;
12660;SDS011;39039;51.802;5.710;2022-12-16T12:48:52;29.37;;;14.27;;
12660;SDS011;39039;51.802;5.710;2022-12-16T12:51:42;27.23;;;14.67;;
12660;SDS011;39039;51.802;5.710;2022-12-16T12:54:30;26.13;;;14.70;;
12660;SDS011;39039;51.802;5.710;2022-12-16T12:57:17;27.90;;;15.60;;
12660;SDS011;39039;51.802;5.710;2022-12-16T13:00:11;28.07;;;15.33;;
12660;SDS011;39039;51.802;5.710;2022-12-16T13:02:59;26.33;;;14.47;;
12660;SDS011;39039;51.802;5.710;2022-12-16T13:05:45;30.93;;;15.70;;
12660;SDS011;39039;51.802;5.710;2022-12-16T13:08:32;26.43;;;15.33;;
12660;SDS011;39039;51.802;5.710;2022-12-16T13:11:19;31.43;;;16.53;;
12660;SDS011;39039;51.802;5.710;2022-12-16T13:17:03;26.23;;;15.00;;
12660;SDS011;39039;51.802;5.710;2022-12-16T13:19:52;23.80;;;14.53;;
12660;SDS011;39039;51.802;5.710;2022-12-16T13:22:37;28.00;;;15.60;;
12660;SDS011;39039;51.802;5.710;2022-12-16T13:25:30;25.67;;;15.73;;
12660;SDS011;39039;51.802;5.710;2022-12-16T13:28:19;27.97;;;16.37;;
12660;SDS011;39039;51.802;5.710;2022-12-16T13:31:05;27.20;;;15.13;;
12660;SDS011;39039;51.802;5.710;2022-12-16T13:33:51;26.97;;;16.27;;
12660;SDS011;39039;51.802;5.710;2022-12-16T13:36:37;29.47;;;15.30;;
12660;SDS011;39039;51.802;5.710;2022-12-16T13:39:23;26.87;;;14.93;;
12660;SDS011;39039;51.802;5.710;2022-12-16T13:45:23;28.97;;;15.70;;
12660;SDS011;39039;51.802;5.710;2022-12-16T13:48:25;26.27;;;15.03;;
12660;SDS011;39039;51.802;5.710;2022-12-16T13:54:10;27.90;;;15.87;;
12660;SDS011;39039;51.802;5.710;2022-12-16T13:56:57;26.47;;;14.80;;
12660;SDS011;39039;51.802;5.710;2022-12-16T13:59:43;30.67;;;16.40;;
12660;SDS011;39039;51.802;5.710;2022-12-16T14:02:34;27.00;;;15.67;;
12660;SDS011;39039;51.802;5.710;2022-12-16T14:05:22;27.50;;;16.13;;
12660;SDS011;39039;51.802;5.710;2022-12-16T14:08:11;27.13;;;15.53;;
12660;SDS011;39039;51.802;5.710;2022-12-16T14:10:58;29.63;;;15.40;;
12660;SDS011;39039;51.802;5.710;2022-12-16T14:13:53;30.70;;;14.60;;
12660;SDS011;39039;51.802;5.710;2022-12-16T14:16:38;28.43;;;16.00;;
12660;SDS011;39039;51.802;5.710;2022-12-16T14:19:30;25.73;;;14.37;;
12660;SDS011;39039;51.802;5.710;2022-12-16T14:22:22;28.53;;;15.37;;
12660;SDS011;39039;51.802;5.710;2022-12-16T14:25:11;30.90;;;17.50;;
12660;SDS011;39039;51.802;5.710;2022-12-16T14:27:56;31.67;;;16.23;;
12660;SDS011;39039;51.802;5.710;2022-12-16T14:30:41;30.07;;;15.50;;
12660;SDS011;39039;51.802;5.710;2022-12-16T14:33:26;26.93;;;16.43;;
12660;SDS011;39039;51.802;5.710;2022-12-16T14:36:20;32.83;;;16.00;;
12660;SDS011;39039;51.802;5.710;2022-12-16T14:39:08;30.30;;;15.83;;
12660;SDS011;39039;51.802;5.710;2022-12-16T14:41:53;28.80;;;16.17;;
12660;SDS011;39039;51.802;5.710;2022-12-16T14:44:38;31.10;;;15.43;;
12660;SDS011;39039;51.802;5.710;2022-12-16T14:47:24;32.17;;;17.03;;
12660;SDS011;39039;51.802;5.710;2022-12-16T14:50:20;29.30;;;15.33;;
12660;SDS011;39039;51.802;5.710;2022-12-16T14:53:15;30.83;;;17.40;;
12660;SDS011;39039;51.802;5.710;2022-12-16T14:59:13;29.93;;;16.63;;
12660;SDS011;39039;51.802;5.710;2022-12-16T15:01:59;34.80;;;17.23;;
12660;SDS011;39039;51.802;5.710;2022-12-16T15:04:46;35.07;;;18.50;;
12660;SDS011;39039;51.802;5.710;2022-12-16T15:07:33;29.33;;;16.00;;
12660;SDS011;39039;51.802;5.710;2022-12-16T15:10:20;32.03;;;15.83;;
12660;SDS011;39039;51.802;5.710;2022-12-16T15:13:09;38.13;;;17.13;;
12660;SDS011;39039;51.802;5.710;2022-12-16T15:15:55;31.20;;;16.07;;
12660;SDS011;39039;51.802;5.710;2022-12-16T15:18:41;31.97;;;17.73;;
12660;SDS011;39039;51.802;5.710;2022-12-16T15:21:28;33.90;;;17.43;;
12660;SDS011;39039;51.802;5.710;2022-12-16T15:24:14;31.13;;;17.20;;
12660;SDS011;39039;51.802;5.710;2022-12-16T15:33:09;33.00;;;18.13;;
12660;SDS011;39039;51.802;5.710;2022-12-16T15:35:59;33.07;;;16.73;;
12660;SDS011;39039;51.802;5.710;2022-12-16T15:38:44;32.03;;;16.50;;
12660;SDS011;39039;51.802;5.710;2022-12-16T15:41:30;29.70;;;16.80;;
12660;SDS011;39039;51.802;5.710;2022-12-16T15:44:16;28.50;;;16.17;;
12660;SDS011;39039;51.802;5.710;2022-12-16T15:47:04;34.50;;;16.60;;
12660;SDS011;39039;51.802;5.710;2022-12-16T15:49:51;34.07;;;16.23;;
12660;SDS011;39039;51.802;5.710;2022-12-16T15:52:37;34.07;;;17.03;;
12660;SDS011;39039;51.802;5.710;2022-12-16T15:55:32;37.50;;;18.13;;
12660;SDS011;39039;51.802;5.710;2022-12-16T15:58:19;31.23;;;16.63;;
12660;SDS011;39039;51.802;5.710;2022-12-16T16:01:04;33.30;;;16.73;;
12660;SDS011;39039;51.802;5.710;2022-12-16T16:03:50;32.93;;;16.30;;
12660;SDS011;39039;51.802;5.710;2022-12-16T16:06:36;36.83;;;17.47;;
12660;SDS011;39039;51.802;5.710;2022-12-16T16:09:22;38.00;;;17.07;;
12660;SDS011;39039;51.802;5.710;2022-12-16T16:12:07;32.27;;;16.07;;